sensor_id;sensor_type;location;lat;lon;timestamp;pressure;altitude;pressure_sealevel;temperature;humidity
16120;BME280;12670;53.502;10.252;2023-03-01T00:01:32;102814.38;;;1.42;79.08
16120;BME280;12670;53.502;10.252;2023-03-01T00:04:35;102805.91;;;1.20;79.60
16120;BME280;12670;53.502;10.252;2023-03-01T00:07:38;102806.56;;;1.13;80.82
16120;BME280;12670;53.502;10.252;2023-03-01T00:10:41;102810.75;;;1.08;80.51
16120;BME280;12670;53.502;10.252;2023-03-01T00:13:44;102796.19;;;1.16;80.42
16120;BME280;12670;53.502;10.252;2023-03-01T00:16:47;102794.75;;;1.27;79.64
16120;BME280;12670;53.502;10.252;2023-03-01T00:19:51;102793.03;;;1.28;79.17
16120;BME280;12670;53.502;10.252;2023-03-01T00:22:54;102801.88;;;1.31;79.04
16120;BME280;12670;53.502;10.252;2023-03-01T00:25:56;102805.16;;;1.24;79.28
16120;BME280;12670;53.502;10.252;2023-03-01T00:28:59;102805.41;;;1.33;78.75
16120;BME280;12670;53.502;10.252;2023-03-01T00:32:02;102803.47;;;1.26;78.99
16120;BME280;12670;53.502;10.252;2023-03-01T00:35:06;102804.38;;;1.28;78.85
16120;BME280;12670;53.502;10.252;2023-03-01T00:38:10;102804.34;;;1.27;78.84
16120;BME280;12670;53.502;10.252;2023-03-01T00:41:14;102798.25;;;1.28;78.88
16120;BME280;12670;53.502;10.252;2023-03-01T00:44:17;102802.47;;;1.23;79.67
16120;BME280;12670;53.502;10.252;2023-03-01T00:47:19;102799.78;;;1.20;80.11
16120;BME280;12670;53.502;10.252;2023-03-01T00:50:23;102796.09;;;1.13;80.05
16120;BME280;12670;53.502;10.252;2023-03-01T00:53:26;102801.41;;;1.16;80.57
16120;BME280;12670;53.502;10.252;2023-03-01T00:56:30;102798.69;;;1.12;80.12
16120;BME280;12670;53.502;10.252;2023-03-01T00:59:33;102804.97;;;1.18;80.70
16120;BME280;12670;53.502;10.252;2023-03-01T01:02:36;102794.22;;;1.09;81.00
16120;BME280;12670;53.502;10.252;2023-03-01T01:05:40;102792.53;;;1.11;80.69
16120;BME280;12670;53.502;10.252;2023-03-01T01:08:42;102778.47;;;1.06;80.53
16120;BME280;12670;53.502;10.252;2023-03-01T01:11:47;102778.56;;;1.11;80.54
16120;BME280;12670;53.502;10.252;2023-03-01T01:14:50;102783.00;;;1.12;80.29
16120;BME280;12670;53.502;10.252;2023-03-01T01:17:52;102779.41;;;1.10;80.66
16120;BME280;12670;53.502;10.252;2023-03-01T01:20:57;102780.78;;;0.97;81.28
16120;BME280;12670;53.502;10.252;2023-03-01T01:24:00;102776.41;;;0.96;80.80
16120;BME280;12670;53.502;10.252;2023-03-01T01:27:02;102770.38;;;0.98;80.79
16120;BME280;12670;53.502;10.252;2023-03-01T01:30:06;102774.81;;;1.01;80.34
16120;BME280;12670;53.502;10.252;2023-03-01T01:33:09;102771.44;;;1.05;80.21
16120;BME280;12670;53.502;10.252;2023-03-01T01:36:13;102761.75;;;1.01;80.68
16120;BME280;12670;53.502;10.252;2023-03-01T01:39:16;102768.25;;;1.15;80.05
16120;BME280;12670;53.502;10.252;2023-03-01T01:42:19;102766.34;;;1.10;80.73
16120;BME280;12670;53.502;10.252;2023-03-01T01:45:30;102753.09;;;1.03;80.77
16120;BME280;12670;53.502;10.252;2023-03-01T01:48:38;102754.50;;;0.92;81.52
16120;BME280;12670;53.502;10.252;2023-03-01T01:51:45;102745.59;;;0.86;81.37
16120;BME280;12670;53.502;10.252;2023-03-01T01:54:53;102745.03;;;0.96;81.19
16120;BME280;12670;53.502;10.252;2023-03-01T01:58:01;102745.94;;;0.96;81.44
16120;BME280;12670;53.502;10.252;2023-03-01T02:01:05;102741.13;;;0.82;81.67
16120;BME280;12670;53.502;10.252;2023-03-01T02:04:08;102745.63;;;0.87;82.07
16120;BME280;12670;53.502;10.252;2023-03-01T02:07:15;102737.88;;;0.89;81.86
16120;BME280;12670;53.502;10.252;2023-03-01T02:10:18;102747.31;;;0.85;81.39
16120;BME280;12670;53.502;10.252;2023-03-01T02:13:20;102750.28;;;0.96;81.52
16120;BME280;12670;53.502;10.252;2023-03-01T02:16:23;102742.28;;;0.91;81.92
16120;BME280;12670;53.502;10.252;2023-03-01T02:19:36;102744.94;;;0.93;82.15
16120;BME280;12670;53.502;10.252;2023-03-01T02:22:44;102739.53;;;0.87;81.61
16120;BME280;12670;53.502;10.252;2023-03-01T02:25:53;102728.19;;;0.86;82.01
16120;BME280;12670;53.502;10.252;2023-03-01T02:29:00;102723.66;;;0.80;81.61
16120;BME280;12670;53.502;10.252;2023-03-01T02:32:03;102729.16;;;0.88;81.92
16120;BME280;12670;53.502;10.252;2023-03-01T02:35:09;102728.91;;;0.80;81.86
16120;BME280;12670;53.502;10.252;2023-03-01T02:38:12;102727.22;;;0.83;82.66
16120;BME280;12670;53.502;10.252;2023-03-01T02:41:17;102728.19;;;0.86;82.81
16120;BME280;12670;53.502;10.252;2023-03-01T02:44:22;102736.00;;;0.85;83.14
16120;BME280;12670;53.502;10.252;2023-03-01T02:47:25;102724.09;;;0.94;82.92
16120;BME280;12670;53.502;10.252;2023-03-01T02:50:46;102722.41;;;0.96;83.28
16120;BME280;12670;53.502;10.252;2023-03-01T02:54:02;102714.91;;;1.09;83.28
16120;BME280;12670;53.502;10.252;2023-03-01T02:57:08;102718.69;;;1.18;82.94
16120;BME280;12670;53.502;10.252;2023-03-01T03:00:17;102717.84;;;1.19;83.00
16120;BME280;12670;53.502;10.252;2023-03-01T03:03:21;102719.78;;;1.26;83.31
16120;BME280;12670;53.502;10.252;2023-03-01T03:06:24;102714.66;;;1.29;83.79
16120;BME280;12670;53.502;10.252;2023-03-01T03:09:26;102714.97;;;1.42;83.14
16120;BME280;12670;53.502;10.252;2023-03-01T03:12:29;102708.31;;;1.53;82.51
16120;BME280;12670;53.502;10.252;2023-03-01T03:15:34;102710.25;;;1.60;82.66
16120;BME280;12670;53.502;10.252;2023-03-01T03:18:37;102711.13;;;1.60;82.91
16120;BME280;12670;53.502;10.252;2023-03-01T03:21:40;102712.63;;;1.52;83.95
16120;BME280;12670;53.502;10.252;2023-03-01T03:24:43;102707.31;;;1.48;84.73
16120;BME280;12670;53.502;10.252;2023-03-01T03:27:47;102712.91;;;1.62;84.76
16120;BME280;12670;53.502;10.252;2023-03-01T03:30:52;102712.94;;;1.63;84.31
16120;BME280;12670;53.502;10.252;2023-03-01T03:33:54;102704.22;;;1.64;84.19
16120;BME280;12670;53.502;10.252;2023-03-01T03:36:58;102702.75;;;1.74;83.94
16120;BME280;12670;53.502;10.252;2023-03-01T03:40:00;102700.16;;;1.75;83.51
16120;BME280;12670;53.502;10.252;2023-03-01T03:43:05;102700.28;;;1.80;83.47
16120;BME280;12670;53.502;10.252;2023-03-01T03:46:11;102690.75;;;1.82;83.85
16120;BME280;12670;53.502;10.252;2023-03-01T03:49:14;102689.78;;;1.78;83.63
16120;BME280;12670;53.502;10.252;2023-03-01T03:52:16;102688.22;;;1.86;83.10
16120;BME280;12670;53.502;10.252;2023-03-01T03:55:19;102685.47;;;1.80;82.97
16120;BME280;12670;53.502;10.252;2023-03-01T03:58:23;102686.44;;;1.84;83.39
16120;BME280;12670;53.502;10.252;2023-03-01T04:01:27;102684.84;;;1.91;83.24
16120;BME280;12670;53.502;10.252;2023-03-01T04:04:30;102686.63;;;1.92;83.67
16120;BME280;12670;53.502;10.252;2023-03-01T04:07:33;102691.09;;;1.96;83.62
16120;BME280;12670;53.502;10.252;2023-03-01T04:10:37;102688.50;;;1.97;83.16
16120;BME280;12670;53.502;10.252;2023-03-01T04:13:40;102677.41;;;2.07;82.78
16120;BME280;12670;53.502;10.252;2023-03-01T04:16:44;102671.50;;;2.16;81.94
16120;BME280;12670;53.502;10.252;2023-03-01T04:19:47;102678.16;;;2.02;83.24
16120;BME280;12670;53.502;10.252;2023-03-01T04:22:51;102669.69;;;2.12;83.16
16120;BME280;12670;53.502;10.252;2023-03-01T04:25:56;102667.09;;;2.13;82.88
16120;BME280;12670;53.502;10.252;2023-03-01T04:28:59;102673.28;;;2.17;83.22
16120;BME280;12670;53.502;10.252;2023-03-01T04:32:03;102672.34;;;2.15;83.94
16120;BME280;12670;53.502;10.252;2023-03-01T04:35:07;102676.81;;;2.18;84.24
16120;BME280;12670;53.502;10.252;2023-03-01T04:38:09;102671.66;;;2.22;84.40
16120;BME280;12670;53.502;10.252;2023-03-01T04:41:12;102664.63;;;2.21;84.42
16120;BME280;12670;53.502;10.252;2023-03-01T04:44:15;102670.03;;;2.27;84.19
16120;BME280;12670;53.502;10.252;2023-03-01T04:47:19;102668.47;;;2.35;83.70
16120;BME280;12670;53.502;10.252;2023-03-01T04:50:22;102665.88;;;2.35;84.54
16120;BME280;12670;53.502;10.252;2023-03-01T04:53:24;102664.72;;;2.24;85.87
16120;BME280;12670;53.502;10.252;2023-03-01T04:56:27;102663.00;;;2.26;86.13
16120;BME280;12670;53.502;10.252;2023-03-01T04:59:30;102664.16;;;2.37;85.00
16120;BME280;12670;53.502;10.252;2023-03-01T05:02:34;102657.41;;;2.47;85.28
16120;BME280;12670;53.502;10.252;2023-03-01T05:05:38;102651.31;;;2.50;84.14
16120;BME280;12670;53.502;10.252;2023-03-01T05:08:41;102660.84;;;2.46;84.78
16120;BME280;12670;53.502;10.252;2023-03-01T05:11:44;102653.22;;;2.57;83.80
16120;BME280;12670;53.502;10.252;2023-03-01T05:14:47;102659.88;;;2.41;84.57
16120;BME280;12670;53.502;10.252;2023-03-01T05:17:51;102662.06;;;2.62;84.45
16120;BME280;12670;53.502;10.252;2023-03-01T05:20:54;102665.53;;;2.61;84.60
16120;BME280;12670;53.502;10.252;2023-03-01T05:23:57;102663.97;;;2.69;84.41
16120;BME280;12670;53.502;10.252;2023-03-01T05:27:00;102660.56;;;2.73;84.54
16120;BME280;12670;53.502;10.252;2023-03-01T05:30:03;102658.94;;;2.78;84.53
16120;BME280;12670;53.502;10.252;2023-03-01T05:33:22;102662.28;;;2.71;83.94
16120;BME280;12670;53.502;10.252;2023-03-01T05:36:25;102659.53;;;2.65;85.56
16120;BME280;12670;53.502;10.252;2023-03-01T05:39:28;102657.09;;;2.74;85.57
16120;BME280;12670;53.502;10.252;2023-03-01T05:42:32;102655.31;;;2.73;85.35
16120;BME280;12670;53.502;10.252;2023-03-01T05:45:35;102645.03;;;2.82;84.88
16120;BME280;12670;53.502;10.252;2023-03-01T05:48:40;102649.44;;;2.83;84.52
16120;BME280;12670;53.502;10.252;2023-03-01T05:51:46;102643.31;;;2.84;84.45
16120;BME280;12670;53.502;10.252;2023-03-01T05:54:49;102646.81;;;2.83;85.20
16120;BME280;12670;53.502;10.252;2023-03-01T05:57:52;102634.59;;;2.85;85.13
16120;BME280;12670;53.502;10.252;2023-03-01T06:00:54;102638.81;;;2.77;85.97
16120;BME280;12670;53.502;10.252;2023-03-01T06:03:59;102639.94;;;2.90;85.64
16120;BME280;12670;53.502;10.252;2023-03-01T06:07:01;102645.34;;;2.98;85.14
16120;BME280;12670;53.502;10.252;2023-03-01T06:10:05;102643.56;;;2.95;86.05
16120;BME280;12670;53.502;10.252;2023-03-01T06:13:09;102648.88;;;3.00;84.69
16120;BME280;12670;53.502;10.252;2023-03-01T06:16:12;102648.78;;;2.93;85.35
16120;BME280;12670;53.502;10.252;2023-03-01T06:19:16;102648.03;;;3.01;85.08
16120;BME280;12670;53.502;10.252;2023-03-01T06:22:19;102633.41;;;3.12;84.15
16120;BME280;12670;53.502;10.252;2023-03-01T06:25:23;102633.44;;;3.15;84.01
16120;BME280;12670;53.502;10.252;2023-03-01T06:28:26;102641.22;;;3.10;83.00
16120;BME280;12670;53.502;10.252;2023-03-01T06:31:29;102637.75;;;3.11;83.88
16120;BME280;12670;53.502;10.252;2023-03-01T06:34:33;102642.25;;;3.17;82.23
16120;BME280;12670;53.502;10.252;2023-03-01T06:37:36;102641.50;;;3.24;83.78
16120;BME280;12670;53.502;10.252;2023-03-01T06:40:39;102641.41;;;3.21;83.28
16120;BME280;12670;53.502;10.252;2023-03-01T06:43:41;102652.97;;;3.29;82.23
16120;BME280;12670;53.502;10.252;2023-03-01T06:46:44;102641.69;;;3.35;82.07
16120;BME280;12670;53.502;10.252;2023-03-01T06:49:48;102649.47;;;3.30;83.40
16120;BME280;12670;53.502;10.252;2023-03-01T06:52:55;102652.88;;;3.26;83.99
16120;BME280;12670;53.502;10.252;2023-03-01T06:55:58;102654.72;;;3.30;84.11
16120;BME280;12670;53.502;10.252;2023-03-01T06:59:02;102648.63;;;3.31;84.51
16120;BME280;12670;53.502;10.252;2023-03-01T07:02:05;102656.66;;;3.40;84.50
16120;BME280;12670;53.502;10.252;2023-03-01T07:05:09;102652.25;;;3.39;84.79
16120;BME280;12670;53.502;10.252;2023-03-01T07:08:11;102647.88;;;3.38;82.83
16120;BME280;12670;53.502;10.252;2023-03-01T07:11:14;102639.19;;;3.41;83.43
16120;BME280;12670;53.502;10.252;2023-03-01T07:14:17;102632.28;;;3.47;83.99
16120;BME280;12670;53.502;10.252;2023-03-01T07:17:21;102637.59;;;3.51;82.59
16120;BME280;12670;53.502;10.252;2023-03-01T07:20:25;102634.25;;;3.59;81.74
16120;BME280;12670;53.502;10.252;2023-03-01T07:23:28;102630.00;;;3.67;81.57
16120;BME280;12670;53.502;10.252;2023-03-01T07:26:31;102634.47;;;3.73;80.73
16120;BME280;12670;53.502;10.252;2023-03-01T07:29:33;102627.53;;;3.77;82.03
16120;BME280;12670;53.502;10.252;2023-03-01T07:32:37;102630.94;;;3.71;81.55
16120;BME280;12670;53.502;10.252;2023-03-01T07:35:41;102624.13;;;3.82;81.88
16120;BME280;12670;53.502;10.252;2023-03-01T07:38:44;102622.44;;;3.86;81.25
16120;BME280;12670;53.502;10.252;2023-03-01T07:41:47;102621.56;;;3.87;80.17
16120;BME280;12670;53.502;10.252;2023-03-01T07:44:49;102633.06;;;3.93;80.51
16120;BME280;12670;53.502;10.252;2023-03-01T07:47:52;102632.22;;;3.94;81.82
16120;BME280;12670;53.502;10.252;2023-03-01T07:50:59;102634.16;;;4.06;79.94
16120;BME280;12670;53.502;10.252;2023-03-01T07:54:02;102631.63;;;4.14;80.14
16120;BME280;12670;53.502;10.252;2023-03-01T07:57:04;102632.56;;;4.19;78.38
16120;BME280;12670;53.502;10.252;2023-03-01T08:00:10;102639.19;;;3.42;78.62
16120;BME280;12670;53.502;10.252;2023-03-01T08:03:13;102637.41;;;3.91;80.88
16120;BME280;12670;53.502;10.252;2023-03-01T08:06:17;102638.63;;;4.15;79.27
16120;BME280;12670;53.502;10.252;2023-03-01T08:09:21;102649.38;;;4.28;79.16
16120;BME280;12670;53.502;10.252;2023-03-01T08:12:24;102652.97;;;4.35;79.48
16120;BME280;12670;53.502;10.252;2023-03-01T08:15:29;102650.38;;;4.38;77.86
16120;BME280;12670;53.502;10.252;2023-03-01T08:18:31;102653.13;;;4.47;78.11
16120;BME280;12670;53.502;10.252;2023-03-01T08:21:35;102656.81;;;4.59;77.87
16120;BME280;12670;53.502;10.252;2023-03-01T08:24:38;102646.31;;;4.62;78.10
16120;BME280;12670;53.502;10.252;2023-03-01T08:27:41;102658.72;;;4.73;76.81
16120;BME280;12670;53.502;10.252;2023-03-01T08:30:43;102644.84;;;4.82;76.79
16120;BME280;12670;53.502;10.252;2023-03-01T08:33:46;102641.34;;;4.86;76.57
16120;BME280;12670;53.502;10.252;2023-03-01T08:36:53;102649.22;;;4.81;76.23
16120;BME280;12670;53.502;10.252;2023-03-01T08:39:56;102647.63;;;4.97;76.96
16120;BME280;12670;53.502;10.252;2023-03-01T08:42:58;102648.56;;;5.02;76.36
16120;BME280;12670;53.502;10.252;2023-03-01T08:46:01;102648.69;;;5.12;77.41
16120;BME280;12670;53.502;10.252;2023-03-01T08:49:04;102646.94;;;5.12;77.49
16120;BME280;12670;53.502;10.252;2023-03-01T08:52:09;102642.72;;;5.28;76.55
16120;BME280;12670;53.502;10.252;2023-03-01T08:55:12;102641.94;;;5.38;75.89
16120;BME280;12670;53.502;10.252;2023-03-01T08:58:16;102646.22;;;5.27;75.07
16120;BME280;12670;53.502;10.252;2023-03-01T09:01:19;102639.31;;;5.37;75.66
16120;BME280;12670;53.502;10.252;2023-03-01T09:04:22;102636.84;;;5.53;74.85
16120;BME280;12670;53.502;10.252;2023-03-01T09:07:26;102640.41;;;5.61;75.31
16120;BME280;12670;53.502;10.252;2023-03-01T09:10:30;102641.31;;;5.64;74.00
16120;BME280;12670;53.502;10.252;2023-03-01T09:13:32;102646.69;;;5.76;73.50
16120;BME280;12670;53.502;10.252;2023-03-01T09:16:35;102639.78;;;5.88;73.89
16120;BME280;12670;53.502;10.252;2023-03-01T09:19:38;102631.06;;;5.93;72.83
16120;BME280;12670;53.502;10.252;2023-03-01T09:22:42;102629.44;;;6.14;72.87
16120;BME280;12670;53.502;10.252;2023-03-01T09:25:45;102625.25;;;6.47;72.11
16120;BME280;12670;53.502;10.252;2023-03-01T09:28:48;102624.38;;;6.50;70.17
16120;BME280;12670;53.502;10.252;2023-03-01T09:31:51;102635.81;;;6.50;69.63
16120;BME280;12670;53.502;10.252;2023-03-01T09:34:56;102628.88;;;6.71;70.09
16120;BME280;12670;53.502;10.252;2023-03-01T09:38:07;102628.09;;;6.93;69.52
16120;BME280;12670;53.502;10.252;2023-03-01T09:41:22;102634.31;;;7.10;69.56
16120;BME280;12670;53.502;10.252;2023-03-01T09:44:32;102632.59;;;7.37;68.99
16120;BME280;12670;53.502;10.252;2023-03-01T09:47:38;102630.84;;;7.36;68.02
16120;BME280;12670;53.502;10.252;2023-03-01T09:50:43;102637.03;;;7.47;68.76
16120;BME280;12670;53.502;10.252;2023-03-01T09:53:49;102630.88;;;7.60;67.78
16120;BME280;12670;53.502;10.252;2023-03-01T09:57:02;102642.31;;;8.16;66.10
16120;BME280;12670;53.502;10.252;2023-03-01T10:03:35;102636.94;;;8.59;65.01
16120;BME280;12670;53.502;10.252;2023-03-01T10:06:45;102636.06;;;8.55;64.29
16120;BME280;12670;53.502;10.252;2023-03-01T10:09:54;102642.25;;;8.49;64.06
16120;BME280;12670;53.502;10.252;2023-03-01T10:12:57;102637.72;;;8.87;63.75
16120;BME280;12670;53.502;10.252;2023-03-01T10:16:03;102639.47;;;8.85;63.94
16120;BME280;12670;53.502;10.252;2023-03-01T10:19:15;102634.09;;;9.07;62.87
16120;BME280;12670;53.502;10.252;2023-03-01T10:22:21;102625.91;;;9.46;62.58
16120;BME280;12670;53.502;10.252;2023-03-01T10:25:36;102625.59;;;9.85;62.21
16120;BME280;12670;53.502;10.252;2023-03-01T10:28:50;102628.72;;;10.32;59.50
16120;BME280;12670;53.502;10.252;2023-03-01T10:31:56;102629.78;;;10.11;59.62
16120;BME280;12670;53.502;10.252;2023-03-01T10:34:59;102620.38;;;10.64;58.24
16120;BME280;12670;53.502;10.252;2023-03-01T10:38:06;102620.13;;;10.85;58.42
16120;BME280;12670;53.502;10.252;2023-03-01T10:41:10;102612.28;;;11.39;56.40
16120;BME280;12670;53.502;10.252;2023-03-01T10:44:35;102604.91;;;11.57;55.90
16120;BME280;12670;53.502;10.252;2023-03-01T10:47:38;102613.94;;;10.85;56.88
16120;BME280;12670;53.502;10.252;2023-03-01T10:50:42;102608.03;;;11.83;54.92
16120;BME280;12670;53.502;10.252;2023-03-01T10:53:49;102614.81;;;12.03;54.66
16120;BME280;12670;53.502;10.252;2023-03-01T10:56:54;102609.63;;;11.93;53.97
16120;BME280;12670;53.502;10.252;2023-03-01T11:00:15;102610.94;;;11.68;53.21
16120;BME280;12670;53.502;10.252;2023-03-01T11:03:23;102607.00;;;11.92;54.31
16120;BME280;12670;53.502;10.252;2023-03-01T11:06:25;102606.28;;;12.30;52.76
16120;BME280;12670;53.502;10.252;2023-03-01T11:09:31;102611.16;;;12.96;51.68
16120;BME280;12670;53.502;10.252;2023-03-01T11:12:41;102593.63;;;13.62;49.58
16120;BME280;12670;53.502;10.252;2023-03-01T11:15:58;102592.47;;;14.06;46.21
16120;BME280;12670;53.502;10.252;2023-03-01T11:19:16;102594.94;;;14.48;46.24
16120;BME280;12670;53.502;10.252;2023-03-01T11:22:21;102595.69;;;15.11;45.03
16120;BME280;12670;53.502;10.252;2023-03-01T11:25:26;102594.94;;;15.88;43.84
16120;BME280;12670;53.502;10.252;2023-03-01T11:28:34;102596.16;;;15.80;43.40
16120;BME280;12670;53.502;10.252;2023-03-01T11:31:41;102593.44;;;16.06;41.40
16120;BME280;12670;53.502;10.252;2023-03-01T11:35:02;102588.44;;;16.45;41.15
16120;BME280;12670;53.502;10.252;2023-03-01T11:38:15;102582.59;;;15.31;41.99
16120;BME280;12670;53.502;10.252;2023-03-01T11:41:21;102580.03;;;15.81;42.12
16120;BME280;12670;53.502;10.252;2023-03-01T11:44:29;102581.53;;;15.90;42.99
16120;BME280;12670;53.502;10.252;2023-03-01T11:47:48;102581.81;;;16.32;41.57
16120;BME280;12670;53.502;10.252;2023-03-01T11:50:54;102574.09;;;16.23;42.07
16120;BME280;12670;53.502;10.252;2023-03-01T11:54:06;102572.97;;;16.30;40.94
16120;BME280;12670;53.502;10.252;2023-03-01T11:57:20;102571.34;;;15.75;42.31
16120;BME280;12670;53.502;10.252;2023-03-01T12:00:52;102562.88;;;14.48;44.28
16120;BME280;12670;53.502;10.252;2023-03-01T12:04:30;102557.81;;;14.69;45.77
16120;BME280;12670;53.502;10.252;2023-03-01T12:07:42;102547.56;;;15.39;43.77
16120;BME280;12670;53.502;10.252;2023-03-01T12:10:56;102547.63;;;15.64;43.04
16120;BME280;12670;53.502;10.252;2023-03-01T12:14:23;102554.03;;;16.58;41.36
16120;BME280;12670;53.502;10.252;2023-03-01T12:17:48;102544.81;;;17.12;40.35
16120;BME280;12670;53.502;10.252;2023-03-01T12:21:07;102544.66;;;17.15;40.61
16120;BME280;12670;53.502;10.252;2023-03-01T12:24:32;102539.75;;;17.47;39.87
16120;BME280;12670;53.502;10.252;2023-03-01T12:28:09;102532.56;;;17.05;40.45
16120;BME280;12670;53.502;10.252;2023-03-01T12:31:41;102528.47;;;15.50;43.81
16120;BME280;12670;53.502;10.252;2023-03-01T12:38:31;102515.72;;;13.14;48.48
16120;BME280;12670;53.502;10.252;2023-03-01T12:41:46;102511.50;;;13.03;49.40
16120;BME280;12670;53.502;10.252;2023-03-01T12:45:07;102508.22;;;13.29;49.25
16120;BME280;12670;53.502;10.252;2023-03-01T12:48:27;102506.91;;;13.80;47.28
16120;BME280;12670;53.502;10.252;2023-03-01T12:51:34;102493.03;;;14.31;46.90
16120;BME280;12670;53.502;10.252;2023-03-01T12:54:38;102489.81;;;15.07;45.20
16120;BME280;12670;53.502;10.252;2023-03-01T12:57:42;102491.91;;;15.50;43.92
16120;BME280;12670;53.502;10.252;2023-03-01T13:00:59;102486.94;;;16.38;42.49
16120;BME280;12670;53.502;10.252;2023-03-01T13:04:12;102485.06;;;16.63;41.43
16120;BME280;12670;53.502;10.252;2023-03-01T13:07:25;102479.81;;;16.84;41.18
16120;BME280;12670;53.502;10.252;2023-03-01T13:10:33;102476.16;;;17.69;38.41
16120;BME280;12670;53.502;10.252;2023-03-01T13:13:37;102474.69;;;17.62;38.11
16120;BME280;12670;53.502;10.252;2023-03-01T13:16:41;102479.50;;;18.15;39.53
16120;BME280;12670;53.502;10.252;2023-03-01T13:19:56;102474.66;;;18.80;36.96
16120;BME280;12670;53.502;10.252;2023-03-01T13:23:07;102474.78;;;18.58;37.10
16120;BME280;12670;53.502;10.252;2023-03-01T13:26:13;102472.16;;;19.30;36.37
16120;BME280;12670;53.502;10.252;2023-03-01T13:29:26;102471.72;;;18.67;35.53
16120;BME280;12670;53.502;10.252;2023-03-01T13:32:29;102469.19;;;19.00;35.95
16120;BME280;12670;53.502;10.252;2023-03-01T13:35:45;102464.53;;;18.09;36.07
16120;BME280;12670;53.502;10.252;2023-03-01T13:38:55;102462.72;;;18.29;36.37
16120;BME280;12670;53.502;10.252;2023-03-01T13:42:00;102460.66;;;18.73;36.00
16120;BME280;12670;53.502;10.252;2023-03-01T13:45:05;102456.31;;;19.07;35.69
16120;BME280;12670;53.502;10.252;2023-03-01T13:48:20;102459.16;;;19.38;36.27
16120;BME280;12670;53.502;10.252;2023-03-01T13:51:27;102458.47;;;19.17;35.38
16120;BME280;12670;53.502;10.252;2023-03-01T13:54:32;102455.16;;;19.47;34.84
16120;BME280;12670;53.502;10.252;2023-03-01T13:57:37;102457.34;;;19.56;34.62
16120;BME280;12670;53.502;10.252;2023-03-01T14:00:41;102448.72;;;19.32;35.20
16120;BME280;12670;53.502;10.252;2023-03-01T14:03:44;102442.69;;;19.10;36.18
16120;BME280;12670;53.502;10.252;2023-03-01T14:06:46;102446.31;;;17.97;37.50
16120;BME280;12670;53.502;10.252;2023-03-01T14:09:54;102443.56;;;17.38;38.90
16120;BME280;12670;53.502;10.252;2023-03-01T14:13:03;102435.84;;;16.20;39.75
16120;BME280;12670;53.502;10.252;2023-03-01T14:16:24;102426.13;;;16.40;39.75
16120;BME280;12670;53.502;10.252;2023-03-01T14:19:33;102425.97;;;15.23;40.99
16120;BME280;12670;53.502;10.252;2023-03-01T14:22:36;102411.47;;;14.50;43.11
16120;BME280;12670;53.502;10.252;2023-03-01T14:25:48;102417.22;;;15.17;43.14
16120;BME280;12670;53.502;10.252;2023-03-01T14:28:51;102420.19;;;15.35;42.31
16120;BME280;12670;53.502;10.252;2023-03-01T14:31:54;102416.66;;;15.34;41.87
16120;BME280;12670;53.502;10.252;2023-03-01T14:34:58;102413.81;;;15.14;42.45
16120;BME280;12670;53.502;10.252;2023-03-01T14:38:02;102412.13;;;14.85;42.92
16120;BME280;12670;53.502;10.252;2023-03-01T14:41:07;102420.03;;;15.14;42.84
16120;BME280;12670;53.502;10.252;2023-03-01T14:44:15;102417.53;;;14.83;43.17
16120;BME280;12670;53.502;10.252;2023-03-01T14:47:25;102407.13;;;14.17;44.03
16120;BME280;12670;53.502;10.252;2023-03-01T14:50:30;102407.41;;;14.07;43.70
16120;BME280;12670;53.502;10.252;2023-03-01T14:53:34;102404.13;;;14.27;42.80
16120;BME280;12670;53.502;10.252;2023-03-01T14:56:53;102404.34;;;13.59;44.44
16120;BME280;12670;53.502;10.252;2023-03-01T14:59:58;102381.16;;;13.92;43.37
16120;BME280;12670;53.502;10.252;2023-03-01T15:03:06;102382.63;;;13.73;42.60
16120;BME280;12670;53.502;10.252;2023-03-01T15:06:17;102379.00;;;13.75;43.07
16120;BME280;12670;53.502;10.252;2023-03-01T15:09:20;102377.81;;;13.85;42.01
16120;BME280;12670;53.502;10.252;2023-03-01T15:12:40;102375.91;;;13.89;43.33
16120;BME280;12670;53.502;10.252;2023-03-01T15:15:43;102373.22;;;13.91;41.61
16120;BME280;12670;53.502;10.252;2023-03-01T15:18:49;102374.84;;;13.65;42.81
16120;BME280;12670;53.502;10.252;2023-03-01T15:21:53;102375.09;;;13.56;42.60
16120;BME280;12670;53.502;10.252;2023-03-01T15:24:56;102369.91;;;13.17;42.91
16120;BME280;12670;53.502;10.252;2023-03-01T15:28:01;102365.94;;;13.33;43.58
16120;BME280;12670;53.502;10.252;2023-03-01T15:31:19;102362.38;;;13.66;42.55
16120;BME280;12670;53.502;10.252;2023-03-01T15:34:25;102363.31;;;13.94;41.49
16120;BME280;12670;53.502;10.252;2023-03-01T15:37:44;102363.75;;;13.48;42.10
16120;BME280;12670;53.502;10.252;2023-03-01T15:40:49;102363.38;;;13.93;41.96
16120;BME280;12670;53.502;10.252;2023-03-01T15:43:54;102369.00;;;13.82;40.98
16120;BME280;12670;53.502;10.252;2023-03-01T15:46:57;102368.56;;;13.35;41.47
16120;BME280;12670;53.502;10.252;2023-03-01T15:50:00;102365.44;;;12.84;43.08
16120;BME280;12670;53.502;10.252;2023-03-01T15:53:05;102364.50;;;12.12;44.57
16120;BME280;12670;53.502;10.252;2023-03-01T15:56:08;102367.75;;;11.86;46.19
16120;BME280;12670;53.502;10.252;2023-03-01T15:59:13;102364.94;;;11.47;47.93
16120;BME280;12670;53.502;10.252;2023-03-01T16:02:16;102370.53;;;10.85;48.95
16120;BME280;12670;53.502;10.252;2023-03-01T16:05:20;102369.78;;;10.76;50.21
16120;BME280;12670;53.502;10.252;2023-03-01T16:08:24;102370.28;;;10.45;50.84
16120;BME280;12670;53.502;10.252;2023-03-01T16:11:27;102365.25;;;10.25;51.32
16120;BME280;12670;53.502;10.252;2023-03-01T16:14:31;102368.00;;;10.18;52.52